createdAt,value
2023-03-31T00:00:37.723Z,12.80
2023-03-31T00:03:10.158Z,12.80
2023-03-31T00:05:38.364Z,12.80
2023-03-31T00:08:09.360Z,12.80
2023-03-31T00:10:37.296Z,12.80
2023-03-31T00:13:05.271Z,12.90
2023-03-31T00:15:33.180Z,12.90
2023-03-31T00:18:02.281Z,12.90
2023-03-31T00:20:33.395Z,13.00
2023-03-31T00:23:01.705Z,13.00
2023-03-31T00:25:30.984Z,13.00
2023-03-31T00:27:59.076Z,13.00
2023-03-31T00:30:27.158Z,13.00
2023-03-31T00:32:56.633Z,13.10
2023-03-31T00:35:24.527Z,13.00
2023-03-31T00:37:53.775Z,12.90
2023-03-31T00:40:21.760Z,12.90
2023-03-31T00:42:51.309Z,12.80
2023-03-31T00:45:29.798Z,12.90
2023-03-31T00:48:04.316Z,12.80
2023-03-31T00:50:36.580Z,12.80
2023-03-31T00:53:09.095Z,12.90
2023-03-31T00:55:41.402Z,12.80
2023-03-31T00:58:14.501Z,12.90
2023-03-31T01:00:42.763Z,13.00
2023-03-31T01:03:11.750Z,13.00
2023-03-31T01:05:47.312Z,13.00
2023-03-31T01:08:17.632Z,13.10
2023-03-31T01:10:50.539Z,13.20
2023-03-31T01:13:20.885Z,13.20
2023-03-31T01:15:49.061Z,13.30
2023-03-31T01:18:21.166Z,13.30
2023-03-31T01:21:33.130Z,13.20
2023-03-31T01:24:36.050Z,13.20
2023-03-31T01:27:23.402Z,13.20
2023-03-31T01:30:26.368Z,13.20
2023-03-31T01:33:24.003Z,13.30
2023-03-31T01:36:11.516Z,13.20
2023-03-31T01:39:09.469Z,13.10
2023-03-31T01:41:50.301Z,13.10
2023-03-31T01:44:23.729Z,13.20
2023-03-31T01:46:55.681Z,13.30
2023-03-31T01:49:30.731Z,13.30
2023-03-31T01:52:05.034Z,13.30
2023-03-31T01:54:39.293Z,13.40
2023-03-31T01:57:15.003Z,13.50
2023-03-31T01:59:50.762Z,13.50
2023-03-31T02:02:24.426Z,13.40
2023-03-31T02:04:56.995Z,13.50
2023-03-31T02:07:31.764Z,13.40
2023-03-31T02:10:03.454Z,13.40
2023-03-31T02:12:34.382Z,13.30
2023-03-31T02:15:04.810Z,13.30
2023-03-31T02:17:34.178Z,13.30
2023-03-31T02:20:06.797Z,13.30
2023-03-31T02:22:38.522Z,13.30
2023-03-31T02:25:09.105Z,13.20
2023-03-31T02:27:42.205Z,13.10
2023-03-31T02:30:11.633Z,13.00
2023-03-31T02:32:41.623Z,12.90
2023-03-31T02:35:13.498Z,12.80
2023-03-31T02:37:43.316Z,12.80
2023-03-31T02:40:16.777Z,12.70
2023-03-31T02:42:46.304Z,12.60
2023-03-31T02:45:40.896Z,12.60
2023-03-31T02:48:12.343Z,12.60
2023-03-31T02:50:56.626Z,12.60
2023-03-31T02:53:30.740Z,12.60
2023-03-31T02:56:13.194Z,12.40
2023-03-31T02:59:07.754Z,12.40
2023-03-31T03:01:47.010Z,12.40
2023-03-31T03:04:30.004Z,12.50
2023-03-31T03:07:06.738Z,12.50
2023-03-31T03:09:46.338Z,12.50
2023-03-31T03:12:18.961Z,12.60
2023-03-31T03:14:53.770Z,12.60
2023-03-31T03:17:26.689Z,12.60
2023-03-31T03:19:56.202Z,12.60
2023-03-31T03:22:24.480Z,12.50
2023-03-31T03:24:53.537Z,12.50
2023-03-31T03:27:22.384Z,12.40
2023-03-31T03:29:51.924Z,12.40
2023-03-31T03:32:19.834Z,12.30
2023-03-31T03:34:47.700Z,12.20
2023-03-31T03:37:15.758Z,12.20
2023-03-31T03:39:43.812Z,12.20
2023-03-31T03:42:11.628Z,12.10
2023-03-31T03:44:39.649Z,12.10
2023-03-31T03:47:08.879Z,12.00
2023-03-31T03:49:36.732Z,12.00
2023-03-31T03:52:04.799Z,11.80
2023-03-31T03:54:33.028Z,11.70
2023-03-31T03:57:01.026Z,11.60
2023-03-31T03:59:29.055Z,11.50
2023-03-31T04:01:57.000Z,11.50
2023-03-31T04:04:26.368Z,11.60
2023-03-31T04:06:54.227Z,11.60
2023-03-31T04:09:22.178Z,11.60
2023-03-31T04:11:50.042Z,11.60
2023-03-31T04:14:17.961Z,11.60
2023-03-31T04:16:46.712Z,11.60
2023-03-31T04:19:17.512Z,11.60
2023-03-31T04:21:50.711Z,11.50
2023-03-31T04:24:21.939Z,11.50
2023-03-31T04:26:50.998Z,11.60
2023-03-31T04:29:20.757Z,11.60
2023-03-31T04:31:50.642Z,11.60
2023-03-31T04:34:18.546Z,11.60
2023-03-31T04:36:48.875Z,11.60
2023-03-31T04:39:16.973Z,11.60
2023-03-31T04:41:45.008Z,11.50
2023-03-31T04:44:12.863Z,11.50
2023-03-31T04:46:40.974Z,11.40
2023-03-31T04:49:08.778Z,11.40
2023-03-31T04:51:36.631Z,11.40
2023-03-31T04:54:06.120Z,11.40
2023-03-31T04:56:34.018Z,11.30
2023-03-31T04:59:03.751Z,11.30
2023-03-31T05:01:33.595Z,11.30
2023-03-31T05:04:01.713Z,11.30
2023-03-31T05:06:29.668Z,11.30
2023-03-31T05:08:57.508Z,11.30
2023-03-31T05:11:27.457Z,11.20
2023-03-31T05:13:55.420Z,11.20
2023-03-31T05:16:23.352Z,11.20
2023-03-31T05:18:51.294Z,11.10
2023-03-31T05:21:21.487Z,11.10
2023-03-31T05:23:50.271Z,11.10
2023-03-31T05:26:18.359Z,11.10
2023-03-31T05:28:47.583Z,11.00
2023-03-31T05:31:15.491Z,11.00
2023-03-31T05:33:43.519Z,11.00
2023-03-31T05:36:13.536Z,11.00
2023-03-31T05:38:42.083Z,11.00
2023-03-31T05:41:11.272Z,10.90
2023-03-31T05:43:40.286Z,10.90
2023-03-31T05:46:10.149Z,10.90
2023-03-31T05:48:38.359Z,10.90
2023-03-31T05:51:06.563Z,10.80
2023-03-31T05:53:34.992Z,10.80
2023-03-31T05:56:05.725Z,10.70
2023-03-31T05:58:36.090Z,10.70
2023-03-31T06:01:08.199Z,10.60
2023-03-31T06:03:41.114Z,10.50
2023-03-31T06:06:10.123Z,10.60
2023-03-31T06:08:38.733Z,10.50
2023-03-31T06:11:08.290Z,10.50
2023-03-31T06:13:37.258Z,10.50
2023-03-31T06:16:05.780Z,10.50
2023-03-31T06:18:35.796Z,10.50
2023-03-31T06:21:06.080Z,10.50
2023-03-31T06:23:34.760Z,10.50
2023-03-31T06:26:04.043Z,10.50
2023-03-31T06:28:32.190Z,10.50
2023-03-31T06:31:04.607Z,10.60
2023-03-31T06:33:32.714Z,10.60
2023-03-31T06:36:01.769Z,10.60
2023-03-31T06:38:31.446Z,10.70
2023-03-31T06:40:59.362Z,10.60
2023-03-31T06:43:27.544Z,10.60
2023-03-31T06:45:56.732Z,10.70
2023-03-31T06:48:25.468Z,10.70
2023-03-31T06:50:54.997Z,10.70
2023-03-31T06:53:23.448Z,10.70
2023-03-31T06:55:53.063Z,10.70
2023-03-31T06:58:21.227Z,10.80
2023-03-31T07:00:49.699Z,10.80
2023-03-31T07:03:18.747Z,10.80
2023-03-31T07:05:50.383Z,10.90
2023-03-31T07:08:19.943Z,10.90
2023-03-31T07:10:48.829Z,10.90
2023-03-31T07:13:19.230Z,10.90
2023-03-31T07:15:49.616Z,10.90
2023-03-31T07:18:19.166Z,10.90
2023-03-31T07:20:50.358Z,10.90
2023-03-31T07:23:18.577Z,11.00
2023-03-31T07:25:47.988Z,11.00
2023-03-31T07:28:16.479Z,11.00
2023-03-31T07:30:45.684Z,11.00
2023-03-31T07:33:13.662Z,11.00
2023-03-31T07:35:42.250Z,11.10
2023-03-31T07:38:10.750Z,11.30
2023-03-31T07:40:39.175Z,11.40
2023-03-31T07:43:08.013Z,11.60
2023-03-31T07:45:36.265Z,11.80
2023-03-31T07:48:06.020Z,12.10
2023-03-31T07:50:33.924Z,12.40
2023-03-31T07:53:01.839Z,12.40
2023-03-31T07:55:29.839Z,12.30
2023-03-31T07:57:58.055Z,12.20
2023-03-31T08:00:26.068Z,12.10
2023-03-31T08:02:54.132Z,12.10
2023-03-31T08:05:23.489Z,12.00
2023-03-31T08:07:51.862Z,12.00
2023-03-31T08:10:23.059Z,11.90
2023-03-31T08:12:51.238Z,11.80
2023-03-31T08:15:19.548Z,11.70
2023-03-31T08:17:47.543Z,11.70
2023-03-31T08:20:15.530Z,11.60
2023-03-31T08:22:44.800Z,11.60
2023-03-31T08:25:12.774Z,11.60
2023-03-31T08:27:41.699Z,11.70
2023-03-31T08:30:12.122Z,11.70
2023-03-31T08:32:40.128Z,11.70
2023-03-31T08:35:09.587Z,11.80
2023-03-31T08:37:37.549Z,11.90
2023-03-31T08:40:09.767Z,12.10
2023-03-31T08:42:40.482Z,12.20
2023-03-31T08:45:15.311Z,12.20
2023-03-31T08:47:44.661Z,12.10
2023-03-31T08:50:16.461Z,12.10
2023-03-31T08:52:49.695Z,11.90
2023-03-31T08:55:25.570Z,11.70
2023-03-31T08:57:58.820Z,11.60
2023-03-31T09:00:27.249Z,11.40
2023-03-31T09:03:01.711Z,11.40
2023-03-31T09:06:00.213Z,11.50
2023-03-31T09:08:37.531Z,11.50
2023-03-31T09:11:30.397Z,11.60
2023-03-31T09:14:24.868Z,11.20
2023-03-31T09:16:58.259Z,10.50
2023-03-31T09:19:40.666Z,10.00
2023-03-31T09:22:14.984Z,9.60
2023-03-31T09:24:53.944Z,9.50
2023-03-31T09:27:25.785Z,9.50
2023-03-31T09:29:57.217Z,9.50
2023-03-31T09:32:29.448Z,9.40
2023-03-31T09:35:01.632Z,9.50
2023-03-31T09:37:32.791Z,9.50
2023-03-31T09:40:02.269Z,9.50
2023-03-31T09:42:31.657Z,9.60
2023-03-31T09:44:59.603Z,9.60
2023-03-31T09:47:34.412Z,9.70
2023-03-31T09:50:02.303Z,9.70
2023-03-31T09:52:32.488Z,9.70
2023-03-31T09:55:02.582Z,9.80
2023-03-31T09:57:34.846Z,9.80
2023-03-31T10:00:16.291Z,9.90
2023-03-31T10:02:48.804Z,9.90
2023-03-31T10:05:28.296Z,9.90
2023-03-31T10:08:19.809Z,9.90
2023-03-31T10:10:50.856Z,10.00
2023-03-31T10:13:22.140Z,10.20
2023-03-31T10:15:53.911Z,10.50
2023-03-31T10:18:22.957Z,10.80
2023-03-31T10:20:53.323Z,11.00
2023-03-31T10:23:27.963Z,11.10
2023-03-31T10:25:56.151Z,11.30
2023-03-31T10:28:26.244Z,11.50
2023-03-31T10:30:57.675Z,11.80
2023-03-31T10:33:27.996Z,11.90
2023-03-31T10:35:58.508Z,12.10
2023-03-31T10:38:30.339Z,12.40
2023-03-31T10:40:59.994Z,12.50
2023-03-31T10:43:31.025Z,12.70
2023-03-31T10:46:01.155Z,12.80
2023-03-31T10:48:31.359Z,13.00
2023-03-31T10:51:02.399Z,13.20
2023-03-31T10:53:30.515Z,13.30
2023-03-31T10:56:08.391Z,13.30
2023-03-31T10:59:02.368Z,13.20
2023-03-31T11:01:45.693Z,13.10
2023-03-31T11:04:36.347Z,12.70
2023-03-31T11:07:12.930Z,12.10
2023-03-31T11:09:53.712Z,11.70
2023-03-31T11:12:28.027Z,11.50
2023-03-31T11:15:08.949Z,11.30
2023-03-31T11:17:54.427Z,11.30
2023-03-31T11:20:30.279Z,11.40
2023-03-31T11:23:04.238Z,11.60
2023-03-31T11:25:39.923Z,11.80
2023-03-31T11:28:27.167Z,12.10
2023-03-31T11:31:07.896Z,12.30
2023-03-31T11:33:54.613Z,12.60
2023-03-31T11:36:44.922Z,13.00
2023-03-31T11:39:27.195Z,13.20
2023-03-31T11:41:59.512Z,13.50
2023-03-31T11:44:31.850Z,13.70
2023-03-31T11:47:04.342Z,13.80
2023-03-31T11:49:38.260Z,13.80
2023-03-31T11:52:15.105Z,13.60
2023-03-31T11:54:55.515Z,13.50
2023-03-31T11:57:28.607Z,13.40
2023-03-31T12:00:00.202Z,13.20
2023-03-31T12:02:39.740Z,13.10
2023-03-31T12:05:09.939Z,13.00
2023-03-31T12:07:43.135Z,13.00
2023-03-31T12:10:20.455Z,13.00
2023-03-31T12:12:54.671Z,13.10
2023-03-31T12:15:25.653Z,13.30
2023-03-31T12:18:00.604Z,13.40
2023-03-31T12:20:33.403Z,13.70
2023-03-31T12:23:04.533Z,13.70
2023-03-31T12:25:43.522Z,13.70
2023-03-31T12:28:13.244Z,13.70
2023-03-31T12:30:44.211Z,13.80
2023-03-31T12:33:19.502Z,13.90
2023-03-31T12:36:01.499Z,13.90
2023-03-31T12:38:42.365Z,13.90
2023-03-31T12:41:17.685Z,14.00
2023-03-31T12:44:05.535Z,14.10
2023-03-31T12:47:01.984Z,14.10
2023-03-31T12:49:44.642Z,14.10
2023-03-31T12:52:17.856Z,14.10
2023-03-31T12:55:06.078Z,14.10
2023-03-31T12:57:33.955Z,14.00
2023-03-31T13:00:25.559Z,14.10
2023-03-31T13:03:34.455Z,14.00
2023-03-31T13:06:04.918Z,14.00
2023-03-31T13:08:53.650Z,14.10
2023-03-31T13:11:23.933Z,14.00
2023-03-31T13:14:01.813Z,13.90
2023-03-31T13:16:30.462Z,14.00
2023-03-31T13:18:58.684Z,14.20
2023-03-31T13:21:28.515Z,14.20
2023-03-31T13:24:01.494Z,14.30
2023-03-31T13:26:38.084Z,14.40
2023-03-31T13:29:23.176Z,14.40
2023-03-31T13:32:20.763Z,14.30
2023-03-31T13:35:00.375Z,14.20
2023-03-31T13:38:03.203Z,14.20
2023-03-31T13:40:58.409Z,14.20
2023-03-31T13:44:12.371Z,14.30
2023-03-31T13:46:52.943Z,14.20
2023-03-31T13:49:45.339Z,14.20
2023-03-31T13:52:14.297Z,14.20
2023-03-31T13:55:15.005Z,14.20
2023-03-31T13:58:32.794Z,14.00
2023-03-31T14:01:22.742Z,13.80
2023-03-31T14:04:03.624Z,13.60
2023-03-31T14:06:36.580Z,13.40
2023-03-31T14:09:08.598Z,13.30
2023-03-31T14:11:37.854Z,13.20
2023-03-31T14:14:07.829Z,13.20
2023-03-31T14:16:40.201Z,13.30
2023-03-31T14:19:49.972Z,13.40
2023-03-31T14:22:25.832Z,13.50
2023-03-31T14:25:03.221Z,13.50
2023-03-31T14:27:46.723Z,13.60
2023-03-31T14:30:23.982Z,13.60
2023-03-31T14:33:05.599Z,13.50
2023-03-31T14:35:38.762Z,13.50
2023-03-31T14:38:11.967Z,13.50
2023-03-31T14:40:47.870Z,13.50
2023-03-31T14:43:22.235Z,13.40
2023-03-31T14:45:59.454Z,13.30
2023-03-31T14:48:29.498Z,13.30
2023-03-31T14:50:59.918Z,13.30
2023-03-31T14:53:28.245Z,13.30
2023-03-31T14:56:02.549Z,13.30
2023-03-31T14:58:34.914Z,13.30
2023-03-31T15:01:06.775Z,13.20
2023-03-31T15:03:36.312Z,13.00
2023-03-31T15:06:05.782Z,12.90
2023-03-31T15:08:36.769Z,12.80
2023-03-31T15:13:46.966Z,12.60
2023-03-31T15:16:29.647Z,12.70
2023-03-31T15:18:58.806Z,12.80
2023-03-31T15:21:28.960Z,12.90
2023-03-31T15:23:57.466Z,13.00
2023-03-31T15:29:23.635Z,13.20
2023-03-31T15:31:51.801Z,13.30
2023-03-31T15:34:24.637Z,13.40
2023-03-31T15:36:56.145Z,13.50
2023-03-31T15:39:24.941Z,13.60
2023-03-31T15:41:53.461Z,13.50
2023-03-31T15:44:38.860Z,13.50
2023-03-31T15:47:19.566Z,13.40
2023-03-31T15:49:53.223Z,13.40
2023-03-31T15:52:23.119Z,13.40
2023-03-31T15:54:51.081Z,13.40
2023-03-31T15:57:19.914Z,13.30
2023-03-31T15:59:55.963Z,13.30
2023-03-31T16:02:26.493Z,13.20
2023-03-31T16:04:58.413Z,13.10
2023-03-31T16:07:29.320Z,13.00
2023-03-31T16:10:01.254Z,12.90
2023-03-31T16:12:32.912Z,12.80
2023-03-31T16:15:07.677Z,12.80
2023-03-31T16:17:39.610Z,12.70
2023-03-31T16:20:12.416Z,12.70
2023-03-31T16:22:47.271Z,12.70
2023-03-31T16:25:18.543Z,12.70
2023-03-31T16:27:48.604Z,12.70
2023-03-31T16:30:21.023Z,12.80
2023-03-31T16:33:08.004Z,12.80
2023-03-31T16:35:37.650Z,12.80
2023-03-31T16:38:06.102Z,12.80
2023-03-31T16:40:38.916Z,12.80
2023-03-31T16:43:13.252Z,12.80
2023-03-31T16:45:45.590Z,12.90
2023-03-31T16:48:17.109Z,12.90
2023-03-31T16:50:45.937Z,12.90
2023-03-31T16:53:14.040Z,12.90
2023-03-31T16:55:42.309Z,12.90
2023-03-31T16:58:10.454Z,12.90
2023-03-31T17:00:40.122Z,12.90
2023-03-31T17:03:10.955Z,12.90
2023-03-31T17:05:39.869Z,12.90
2023-03-31T17:08:08.478Z,12.90
2023-03-31T17:10:36.464Z,12.90
2023-03-31T17:13:04.657Z,12.90
2023-03-31T17:15:32.744Z,12.90
2023-03-31T17:18:00.864Z,12.90
2023-03-31T17:20:32.732Z,12.80
2023-03-31T17:23:00.682Z,12.80
2023-03-31T17:25:28.612Z,12.90
2023-03-31T17:27:56.542Z,12.90
2023-03-31T17:30:24.796Z,12.90
2023-03-31T17:32:53.057Z,12.90
2023-03-31T17:35:22.429Z,12.90
2023-03-31T17:37:53.795Z,12.80
2023-03-31T17:40:22.075Z,12.80
2023-03-31T17:42:50.635Z,12.80
2023-03-31T17:45:18.620Z,12.80
2023-03-31T17:47:46.607Z,12.70
2023-03-31T17:50:14.471Z,12.70
2023-03-31T17:52:42.321Z,12.70
2023-03-31T17:55:19.655Z,12.60
2023-03-31T17:57:47.597Z,12.50
2023-03-31T18:00:16.559Z,12.50
2023-03-31T18:02:44.646Z,12.50
2023-03-31T18:05:12.973Z,12.50
2023-03-31T18:07:41.445Z,12.40
2023-03-31T18:10:10.722Z,12.50
2023-03-31T18:12:40.076Z,12.50
2023-03-31T18:15:10.882Z,12.40
2023-03-31T18:17:38.801Z,12.40
2023-03-31T18:20:08.192Z,12.40
2023-03-31T18:22:36.963Z,12.40
2023-03-31T18:25:05.417Z,12.40
2023-03-31T18:27:33.397Z,12.50
2023-03-31T18:30:02.635Z,12.50
2023-03-31T18:32:30.840Z,12.50
2023-03-31T18:34:58.775Z,12.40
2023-03-31T18:37:27.260Z,12.50
2023-03-31T18:39:55.135Z,12.50
2023-03-31T18:42:25.596Z,12.50
2023-03-31T18:44:53.587Z,12.50
2023-03-31T18:47:23.352Z,12.50
2023-03-31T18:49:53.900Z,12.50
2023-03-31T18:52:22.149Z,12.50
2023-03-31T18:54:51.306Z,12.50
2023-03-31T18:57:19.324Z,12.50
2023-03-31T18:59:47.262Z,12.40
2023-03-31T19:02:16.881Z,12.40
2023-03-31T19:04:46.725Z,12.40
2023-03-31T19:07:15.618Z,12.30
2023-03-31T19:09:43.415Z,12.00
2023-03-31T19:12:12.564Z,11.70
2023-03-31T19:14:41.505Z,11.60
2023-03-31T19:17:10.007Z,11.50
2023-03-31T19:19:37.841Z,11.40
2023-03-31T19:22:07.102Z,11.30
2023-03-31T19:24:35.061Z,11.20
2023-03-31T19:27:03.162Z,11.10
2023-03-31T19:29:31.783Z,10.90
2023-03-31T19:32:00.157Z,10.90
2023-03-31T19:34:28.398Z,10.80
2023-03-31T19:36:56.504Z,10.80
2023-03-31T19:39:28.155Z,10.90
2023-03-31T19:41:56.028Z,10.90
2023-03-31T19:44:23.853Z,10.90
2023-03-31T19:46:51.805Z,10.80
2023-03-31T19:49:20.078Z,10.90
2023-03-31T19:51:48.111Z,10.90
2023-03-31T19:54:15.900Z,10.90
2023-03-31T19:56:45.103Z,10.90
2023-03-31T19:59:13.292Z,10.90
2023-03-31T20:01:41.288Z,11.00
2023-03-31T20:04:10.961Z,11.00
2023-03-31T20:06:39.505Z,11.00
2023-03-31T20:09:07.577Z,11.00
2023-03-31T20:11:36.088Z,11.10
2023-03-31T20:14:06.211Z,11.10
2023-03-31T20:16:34.537Z,11.10
2023-03-31T20:19:05.067Z,11.20
2023-03-31T20:21:35.330Z,11.20
2023-03-31T20:24:04.806Z,11.30
2023-03-31T20:26:33.768Z,11.30
2023-03-31T20:29:04.013Z,11.40
2023-03-31T20:31:36.618Z,11.40
2023-03-31T20:34:08.327Z,11.40
2023-03-31T20:36:36.438Z,11.30
2023-03-31T20:39:06.112Z,11.30
2023-03-31T20:41:36.983Z,11.20
2023-03-31T20:44:06.096Z,11.20
2023-03-31T20:46:35.440Z,11.30
2023-03-31T20:49:03.825Z,11.20
2023-03-31T20:51:33.586Z,11.30
2023-03-31T20:54:02.452Z,11.30
2023-03-31T20:56:32.117Z,11.40
2023-03-31T20:59:00.853Z,11.30
2023-03-31T21:01:31.082Z,11.20
2023-03-31T21:04:01.583Z,11.10
2023-03-31T21:06:32.379Z,10.90
2023-03-31T21:09:00.410Z,10.80
2023-03-31T21:11:29.676Z,10.70
2023-03-31T21:13:57.488Z,10.70
2023-03-31T21:16:25.589Z,10.70
2023-03-31T21:18:54.919Z,10.70
2023-03-31T21:21:25.460Z,10.80
2023-03-31T21:23:53.765Z,10.90
2023-03-31T21:26:22.822Z,11.00
2023-03-31T21:28:53.887Z,11.10
2023-03-31T21:31:24.086Z,11.20
2023-03-31T21:33:53.619Z,11.20
2023-03-31T21:36:24.629Z,11.30
2023-03-31T21:38:54.684Z,11.40
2023-03-31T21:41:24.557Z,11.40
2023-03-31T21:43:53.484Z,11.40
2023-03-31T21:46:23.953Z,11.40
2023-03-31T21:48:52.128Z,11.40
2023-03-31T21:51:21.883Z,11.50
2023-03-31T21:53:53.133Z,11.50
2023-03-31T21:56:21.598Z,11.50
2023-03-31T21:58:50.670Z,11.60
2023-03-31T22:01:19.432Z,11.60
2023-03-31T22:03:48.626Z,11.60
2023-03-31T22:06:16.811Z,11.60
2023-03-31T22:08:45.159Z,11.80
2023-03-31T22:11:14.973Z,11.70
2023-03-31T22:13:43.092Z,11.60
2023-03-31T22:16:19.755Z,11.60
2023-03-31T22:18:50.359Z,11.60
2023-03-31T22:21:21.390Z,11.60
2023-03-31T22:23:49.327Z,11.60
2023-03-31T22:26:18.622Z,11.60
2023-03-31T22:28:46.505Z,11.60
2023-03-31T22:31:14.322Z,11.50
2023-03-31T22:33:42.484Z,11.50
2023-03-31T22:36:10.779Z,11.50
2023-03-31T22:38:39.005Z,11.50
2023-03-31T22:41:07.314Z,11.50
2023-03-31T22:43:36.579Z,11.50
2023-03-31T22:46:05.839Z,11.50
2023-03-31T22:48:33.984Z,11.50
2023-03-31T22:51:04.460Z,11.40
2023-03-31T22:53:33.112Z,11.40
2023-03-31T22:56:06.161Z,11.40
2023-03-31T22:58:36.652Z,11.40
2023-03-31T23:01:07.143Z,11.40
2023-03-31T23:03:35.122Z,11.40
2023-03-31T23:06:05.090Z,11.40
2023-03-31T23:08:33.650Z,11.40
2023-03-31T23:11:02.992Z,11.40
2023-03-31T23:13:31.331Z,11.40
2023-03-31T23:16:06.533Z,11.40
2023-03-31T23:18:34.694Z,11.40
2023-03-31T23:21:05.510Z,11.30
2023-03-31T23:23:33.649Z,11.30
2023-03-31T23:26:02.498Z,11.30
2023-03-31T23:28:30.406Z,11.30
2023-03-31T23:30:58.252Z,11.20
2023-03-31T23:33:28.874Z,11.20
2023-03-31T23:36:00.221Z,11.30
2023-03-31T23:38:28.540Z,11.20
2023-03-31T23:40:56.635Z,11.20
2023-03-31T23:43:25.229Z,11.30
2023-03-31T23:45:53.474Z,11.30
2023-03-31T23:48:22.111Z,11.30
2023-03-31T23:50:51.769Z,11.20
2023-03-31T23:53:19.721Z,11.20
2023-03-31T23:55:54.674Z,11.20
2023-03-31T23:58:22.515Z,11.20
